Time;durP1;ratioP1;P1;durP2;ratioP2;P2;SDS_P1;SDS_P2;PMS_P1;PMS_P2;Temp;Humidity;BMP_temperature;BMP_pressure;BME280_temperature;BME280_humidity;BME280_pressure;Samples;Min_cycle;Max_cycle;Signal;HPM_P1;HPM_P2
2021/07/01 00:02:24;;;;;;;36.85;21.48;;;;;;;16.76;100.00;100140.28;5193059;28;20045;-79
2021/07/01 00:04:54;;;;;;;32.40;21.50;;;;;;;16.59;100.00;100145.84;5190250;28;20627;-79
2021/07/01 00:07:24;;;;;;;28.33;19.50;;;;;;;16.64;100.00;100139.34;5193695;28;20069;-79
2021/07/01 00:09:54;;;;;;;29.13;20.15;;;;;;;16.80;100.00;100146.09;5193708;28;20025;-79
2021/07/01 00:12:25;;;;;;;27.98;18.83;;;;;;;16.84;100.00;100144.94;5194410;28;20033;-79
2021/07/01 00:14:55;;;;;;;29.42;18.80;;;;;;;16.74;100.00;100150.13;5193681;28;20033;-79
2021/07/01 00:17:25;;;;;;;25.73;18.00;;;;;;;16.69;100.00;100146.94;5195631;28;20061;-79
2021/07/01 00:19:56;;;;;;;23.15;15.88;;;;;;;16.75;100.00;100152.63;5188088;28;20017;-79
2021/07/01 00:22:26;;;;;;;22.30;15.15;;;;;;;16.78;100.00;100155.91;5193322;28;20036;-79
2021/07/01 00:24:56;;;;;;;22.88;15.90;;;;;;;16.69;100.00;100147.78;5195730;28;20025;-79
2021/07/01 00:27:28;;;;;;;24.23;16.08;;;;;;;16.65;100.00;100161.28;5195650;28;20268;-79
2021/07/01 00:29:58;;;;;;;24.35;15.80;;;;;;;16.72;100.00;100142.28;5192019;28;20029;-78
2021/07/01 00:32:29;;;;;;;21.08;15.13;;;;;;;16.77;100.00;100144.63;5182079;28;20124;-79
2021/07/01 00:34:59;;;;;;;23.23;15.30;;;;;;;16.68;100.00;100146.09;5186754;28;20025;-79
2021/07/01 00:37:32;;;;;;;26.27;16.17;;;;;;;16.56;100.00;100143.44;5198421;28;20028;-79
2021/07/01 00:40:05;;;;;;;28.05;17.33;;;;;;;16.63;100.00;100153.47;5193216;28;20049;-79
2021/07/01 00:42:36;;;;;;;26.98;18.13;;;;;;;16.61;100.00;100143.97;5190010;28;20056;-79
2021/07/01 00:45:07;;;;;;;28.45;18.00;;;;;;;16.47;100.00;100142.25;5190319;28;20049;-79
2021/07/01 00:47:39;;;;;;;26.08;18.42;;;;;;;16.42;100.00;100141.69;5192378;28;20029;-79
2021/07/01 00:50:12;;;;;;;27.13;18.17;;;;;;;16.36;100.00;100144.75;5186443;28;20037;-80
2021/07/01 00:52:42;;;;;;;29.85;18.92;;;;;;;16.40;100.00;100154.13;5192632;28;20034;-79
2021/07/01 00:55:13;;;;;;;29.20;17.98;;;;;;;16.56;100.00;100152.19;5189313;28;20030;-79
2021/07/01 00:57:43;;;;;;;25.95;18.20;;;;;;;16.50;100.00;100149.97;5191723;28;20087;-79
2021/07/01 01:00:47;;;;;;;24.92;16.40;;;;;;;16.55;100.00;100155.75;5190758;28;20037;-77
2021/07/01 01:03:05;;;;;;;24.20;16.20;;;;;;;16.34;100.00;100156.28;5189101;28;20399;-79
2021/07/01 01:05:35;;;;;;;24.40;16.42;;;;;;;16.29;100.00;100151.34;5190216;28;20037;-79
2021/07/01 01:08:06;;;;;;;24.42;16.63;;;;;;;16.11;100.00;100154.31;5189949;28;20048;-79
2021/07/01 01:10:37;;;;;;;25.83;15.70;;;;;;;16.06;100.00;100159.88;5190441;28;20418;-79
2021/07/01 01:13:08;;;;;;;27.65;15.55;;;;;;;16.11;100.00;100152.53;5192072;28;20040;-78
2021/07/01 01:15:39;;;;;;;22.67;15.50;;;;;;;16.18;100.00;100160.91;5189816;28;20033;-79
2021/07/01 01:18:09;;;;;;;23.85;14.93;;;;;;;16.07;100.00;100152.84;5188243;28;20041;-79
2021/07/01 01:20:39;;;;;;;21.33;14.38;;;;;;;16.10;100.00;100152.63;5188517;28;20124;-79
2021/07/01 01:23:10;;;;;;;22.75;14.95;;;;;;;15.97;100.00;100149.94;5191879;28;20048;-79
2021/07/01 01:25:42;;;;;;;24.38;14.65;;;;;;;16.07;100.00;100153.66;5190988;28;20922;-79
2021/07/01 01:28:13;;;;;;;19.58;13.85;;;;;;;16.07;100.00;100152.84;5191340;28;20395;-80
2021/07/01 01:30:44;;;;;;;18.85;13.65;;;;;;;16.04;100.00;100147.75;5191363;28;20021;-79
2021/07/01 01:33:14;;;;;;;19.58;12.85;;;;;;;15.91;100.00;100145.03;5193744;28;20509;-79
2021/07/01 01:35:45;;;;;;;14.52;11.27;;;;;;;15.90;100.00;100161.81;5190071;28;20484;-79
2021/07/01 01:38:16;;;;;;;15.98;10.70;;;;;;;15.84;100.00;100154.31;5192849;28;20029;-79
2021/07/01 01:40:48;;;;;;;13.65;10.00;;;;;;;15.77;100.00;100152.16;5187655;28;20507;-78
2021/07/01 01:43:20;;;;;;;14.55;10.40;;;;;;;15.88;100.00;100147.88;5189950;28;20033;-79
2021/07/01 01:45:51;;;;;;;16.15;10.15;;;;;;;15.72;100.00;100152.44;5192181;28;20029;-79
2021/07/01 01:48:22;;;;;;;16.35;10.60;;;;;;;15.63;100.00;100158.28;5184049;28;20836;-78
2021/07/01 01:50:52;;;;;;;14.30;9.60;;;;;;;15.71;100.00;100168.34;5187932;28;20092;-79
2021/07/01 01:53:23;;;;;;;13.60;9.80;;;;;;;15.75;100.00;100162.81;5192871;28;20032;-79
2021/07/01 01:55:53;;;;;;;13.52;9.88;;;;;;;15.79;100.00;100164.28;5188917;28;20029;-78
2021/07/01 01:58:23;;;;;;;15.25;9.18;;;;;;;15.75;100.00;100156.69;5189733;28;20508;-79
2021/07/01 02:00:54;;;;;;;12.82;9.02;;;;;;;15.78;100.00;100167.00;5195627;28;20086;-79
2021/07/01 02:03:24;;;;;;;12.55;8.57;;;;;;;15.71;100.00;100161.28;5194923;28;20040;-79
2021/07/01 02:05:54;;;;;;;10.80;7.72;;;;;;;15.67;100.00;100157.16;5189661;28;20029;-79
2021/07/01 02:08:24;;;;;;;9.65;7.22;;;;;;;15.64;100.00;100160.00;5194298;28;20044;-79
2021/07/01 02:10:55;;;;;;;10.73;7.07;;;;;;;15.49;100.00;100154.81;5190063;28;20381;-79
2021/07/01 02:13:25;;;;;;;8.35;6.40;;;;;;;15.59;100.00;100161.22;5194582;28;20116;-80
2021/07/01 02:15:55;;;;;;;10.90;6.47;;;;;;;15.40;100.00;100150.97;5191329;28;20068;-80
2021/07/01 02:18:26;;;;;;;10.32;6.85;;;;;;;15.30;100.00;100149.00;5194351;28;20035;-79
2021/07/01 02:20:56;;;;;;;8.25;6.18;;;;;;;15.33;100.00;100152.28;5191483;28;20490;-79
2021/07/01 02:23:26;;;;;;;7.53;5.63;;;;;;;15.32;100.00;100150.59;5192350;28;20037;-79
2021/07/01 02:25:56;;;;;;;8.45;5.65;;;;;;;15.27;100.00;100150.00;5190656;28;20456;-79
2021/07/01 02:28:27;;;;;;;8.45;5.53;;;;;;;15.07;100.00;100144.25;5196142;28;20037;-79
2021/07/01 02:30:57;;;;;;;8.15;5.80;;;;;;;15.01;100.00;100147.28;5194714;28;20025;-79
2021/07/01 02:33:27;;;;;;;10.73;5.95;;;;;;;14.94;100.00;100149.44;5192039;28;20052;-79
2021/07/01 02:35:58;;;;;;;10.23;6.22;;;;;;;14.88;100.00;100152.41;5193915;28;20021;-79
2021/07/01 02:38:28;;;;;;;10.80;6.45;;;;;;;14.88;100.00;100157.66;5190529;28;20369;-79
2021/07/01 02:40:58;;;;;;;11.68;6.28;;;;;;;14.79;100.00;100156.53;5193744;28;20025;-79
2021/07/01 02:43:29;;;;;;;11.07;6.75;;;;;;;14.83;100.00;100154.47;5192082;28;20045;-79
2021/07/01 02:45:59;;;;;;;11.55;6.60;;;;;;;14.73;100.00;100156.91;5192221;28;20017;-79
2021/07/01 02:48:29;;;;;;;10.30;6.03;;;;;;;14.79;100.00;100161.81;5191900;28;20033;-79
2021/07/01 02:51:00;;;;;;;13.00;6.75;;;;;;;14.70;100.00;100163.19;5190641;28;20037;-79
2021/07/01 02:53:30;;;;;;;11.32;6.65;;;;;;;14.84;100.00;100158.78;5192761;28;20456;-79
2021/07/01 02:56:00;;;;;;;9.95;6.15;;;;;;;14.80;100.00;100158.22;5194349;28;20050;-79
2021/07/01 02:58:31;;;;;;;11.10;6.70;;;;;;;14.86;100.00;100159.53;5192848;28;20025;-80
2021/07/01 03:01:02;;;;;;;10.57;6.60;;;;;;;14.77;100.00;100153.16;5192106;28;20036;-79
2021/07/01 03:03:32;;;;;;;9.13;6.60;;;;;;;14.82;100.00;100152.78;5192758;28;20055;-79
2021/07/01 03:06:03;;;;;;;11.02;6.95;;;;;;;14.80;100.00;100150.34;5190949;28;20669;-79
2021/07/01 03:08:33;;;;;;;12.35;6.82;;;;;;;14.79;100.00;100151.28;5190752;28;20026;-80
2021/07/01 03:11:03;;;;;;;12.50;6.80;;;;;;;14.89;100.00;100153.25;5191291;28;20123;-79
2021/07/01 03:13:34;;;;;;;13.07;7.80;;;;;;;14.96;100.00;100152.81;5191549;28;20030;-79
2021/07/01 03:16:04;;;;;;;9.52;6.90;;;;;;;14.95;100.00;100152.88;5190493;28;20183;-80
2021/07/01 03:18:35;;;;;;;9.98;6.88;;;;;;;15.01;100.00;100152.53;5184916;28;20473;-80
2021/07/01 03:21:05;;;;;;;10.93;6.78;;;;;;;14.97;100.00;100154.50;5188430;28;20033;-79
2021/07/01 03:23:35;;;;;;;12.77;7.67;;;;;;;14.95;100.00;100153.75;5186463;28;20030;-79
2021/07/01 03:26:06;;;;;;;9.90;6.97;;;;;;;14.82;100.00;100150.16;5185972;28;20848;-79
2021/07/01 03:28:37;;;;;;;11.02;8.00;;;;;;;14.86;100.00;100154.28;5187794;28;20527;-79
2021/07/01 03:31:07;;;;;;;9.90;7.20;;;;;;;14.97;100.00;100156.28;5187752;28;20033;-79
2021/07/01 03:33:38;;;;;;;11.02;7.00;;;;;;;14.75;100.00;100147.13;5190093;28;20101;-80
2021/07/01 03:36:08;;;;;;;8.85;6.97;;;;;;;14.85;100.00;100151.75;5186689;28;20057;-80
2021/07/01 03:38:39;;;;;;;9.50;6.85;;;;;;;14.83;100.00;100148.38;5191811;28;20140;-80
2021/07/01 03:41:09;;;;;;;12.05;6.68;;;;;;;14.94;100.00;100146.78;5194026;28;20038;-80
2021/07/01 03:43:46;;;;;;;7.55;6.32;;;;;;;14.95;100.00;100143.22;5191751;28;20111;-80
2021/07/01 03:46:16;;;;;;;9.25;6.30;;;;;;;14.93;100.00;100145.09;5198121;28;20041;-80
2021/07/01 03:48:46;;;;;;;9.85;6.40;;;;;;;15.07;100.00;100147.75;5195732;28;20072;-80
2021/07/01 03:51:17;;;;;;;8.45;5.97;;;;;;;14.90;100.00;100145.28;5194977;28;20033;-80
2021/07/01 03:53:47;;;;;;;12.65;7.00;;;;;;;14.86;100.00;100138.50;5197755;28;20028;-80
2021/07/01 03:56:17;;;;;;;8.10;6.53;;;;;;;14.94;100.00;100144.16;5193653;28;20076;-80
2021/07/01 03:58:48;;;;;;;10.70;7.03;;;;;;;14.78;100.00;100139.88;5198929;28;20033;-80
2021/07/01 04:01:18;;;;;;;11.35;6.88;;;;;;;14.78;100.00;100149.59;5159243;28;1090845;-80
2021/07/01 04:03:48;;;;;;;11.60;7.10;;;;;;;14.74;100.00;100145.44;5194500;28;20025;-80
2021/07/01 04:06:19;;;;;;;9.65;7.32;;;;;;;14.65;100.00;100141.56;5197143;28;20530;-80
2021/07/01 04:08:49;;;;;;;13.82;7.68;;;;;;;14.75;100.00;100137.44;5196522;28;20443;-80
2021/07/01 04:11:19;;;;;;;9.70;7.13;;;;;;;14.88;100.00;100143.69;5197109;28;20090;-80
2021/07/01 04:13:49;;;;;;;9.75;6.90;;;;;;;14.89;100.00;100142.75;5193662;28;20060;-80
2021/07/01 04:16:20;;;;;;;10.65;7.70;;;;;;;14.82;100.00;100147.50;5193643;28;20028;-80
2021/07/01 04:18:50;;;;;;;13.05;7.07;;;;;;;14.73;100.00;100141.13;5196670;28;20021;-80
2021/07/01 04:21:26;;;;;;;12.40;7.07;;;;;;;14.72;100.00;100142.03;5192538;28;20030;-80
2021/07/01 04:23:57;;;;;;;9.43;6.15;;;;;;;14.65;100.00;100144.22;5195986;28;20025;-80
2021/07/01 04:26:28;;;;;;;13.23;6.65;;;;;;;14.65;100.00;100141.56;5193856;28;20057;-80
2021/07/01 04:28:58;;;;;;;10.65;6.53;;;;;;;14.61;100.00;100139.22;5193295;28;20391;-80
2021/07/01 04:31:29;;;;;;;11.93;7.07;;;;;;;14.58;100.00;100148.13;5196866;28;20305;-80
2021/07/01 04:34:02;;;;;;;10.18;7.07;;;;;;;14.56;100.00;100150.00;5198447;28;20040;-80
2021/07/01 04:36:33;;;;;;;12.40;8.20;;;;;;;14.57;100.00;100156.13;5198095;28;20025;-80
2021/07/01 04:39:04;;;;;;;10.35;7.60;;;;;;;14.47;100.00;100152.31;5197478;28;20140;-79
2021/07/01 04:41:34;;;;;;;10.88;8.02;;;;;;;14.55;100.00;100157.97;5198282;28;20373;-80
2021/07/01 04:44:05;;;;;;;12.70;8.13;;;;;;;14.50;100.00;100149.50;5195228;28;20045;-80
2021/07/01 04:46:38;;;;;;;14.38;8.23;;;;;;;14.41;100.00;100152.69;5195574;28;20036;-80
2021/07/01 04:49:08;;;;;;;14.40;8.95;;;;;;;14.48;100.00;100154.00;5193918;28;20471;-80
2021/07/01 04:51:38;;;;;;;11.65;8.43;;;;;;;14.59;100.00;100162.13;5196977;28;20025;-80
2021/07/01 04:54:09;;;;;;;11.57;7.80;;;;;;;14.60;100.00;100162.03;5198066;28;20044;-80
2021/07/01 04:56:46;;;;;;;14.95;9.00;;;;;;;14.68;100.00;100164.19;5195440;28;20033;-80
2021/07/01 04:59:18;;;;;;;11.65;8.07;;;;;;;14.67;100.00;100160.75;5199296;28;20034;-80
2021/07/01 05:01:48;;;;;;;12.02;7.85;;;;;;;14.55;100.00;100164.09;5197073;28;20032;-80
2021/07/01 05:04:18;;;;;;;11.27;7.60;;;;;;;14.48;100.00;100165.38;5199254;28;20049;-79
2021/07/01 05:06:48;;;;;;;12.98;7.90;;;;;;;14.64;100.00;100162.69;5195984;28;20021;-80
2021/07/01 05:09:19;;;;;;;11.07;7.70;;;;;;;14.65;100.00;100169.66;5198829;28;20600;-80
2021/07/01 05:11:49;;;;;;;10.38;7.57;;;;;;;14.62;100.00;100162.78;5192915;28;20025;-80
2021/07/01 05:14:19;;;;;;;13.82;7.90;;;;;;;14.55;100.00;100164.09;5195274;28;20089;-80
2021/07/01 05:16:50;;;;;;;9.88;7.25;;;;;;;14.56;100.00;100162.31;5195531;28;20472;-80
2021/07/01 05:19:20;;;;;;;12.23;7.85;;;;;;;14.53;100.00;100167.72;5191695;28;20253;-80
2021/07/01 05:21:50;;;;;;;11.50;8.13;;;;;;;14.59;100.00;100167.38;5191866;28;20068;-80
2021/07/01 05:24:20;;;;;;;15.15;8.55;;;;;;;14.49;100.00;100159.19;5199044;28;20426;-80
2021/07/01 05:26:51;;;;;;;12.38;8.23;;;;;;;14.58;100.00;100163.91;5189677;28;20056;-80
2021/07/01 05:29:21;;;;;;;11.20;8.05;;;;;;;14.58;100.00;100157.81;5197001;28;20052;-80
2021/07/01 05:31:51;;;;;;;12.43;8.10;;;;;;;14.59;100.00;100162.13;5192764;28;20254;-80
2021/07/01 05:34:22;;;;;;;14.30;8.43;;;;;;;14.53;100.00;100168.59;5192251;28;20048;-80
2021/07/01 05:36:52;;;;;;;13.63;8.07;;;;;;;14.57;100.00;100151.69;5197868;28;20072;-80
2021/07/01 05:39:22;;;;;;;11.57;8.40;;;;;;;14.65;100.00;100154.72;5194723;28;20026;-79
2021/07/01 05:41:53;;;;;;;11.20;7.82;;;;;;;14.72;100.00;100150.78;5197044;28;20507;-80
2021/07/01 05:44:23;;;;;;;12.38;7.95;;;;;;;14.75;100.00;100155.88;5191756;28;20041;-80
2021/07/01 05:46:53;;;;;;;12.50;8.50;;;;;;;14.62;100.00;100156.69;5194595;28;20025;-80
2021/07/01 05:49:23;;;;;;;11.90;8.02;;;;;;;14.68;100.00;100151.06;5192458;28;20030;-80
2021/07/01 05:52:00;;;;;;;12.70;8.18;;;;;;;14.73;100.00;100139.31;5196201;28;20231;-80
2021/07/01 05:57:02;;;;;;;13.68;7.20;;;;;;;14.65;100.00;100148.59;5196053;28;20025;-80
2021/07/01 05:59:32;;;;;;;11.13;7.40;;;;;;;14.64;100.00;100147.78;5196397;28;20038;-80
2021/07/01 06:02:03;;;;;;;10.75;7.00;;;;;;;14.82;100.00;100142.25;5195487;28;20028;-80
2021/07/01 06:04:33;;;;;;;10.13;6.70;;;;;;;14.91;100.00;100151.38;5196859;28;20034;-80
2021/07/01 06:07:05;;;;;;;12.45;7.13;;;;;;;14.87;100.00;100137.56;5194548;28;20017;-80
2021/07/01 06:09:37;;;;;;;10.90;6.70;;;;;;;14.83;100.00;100141.31;5196831;28;20025;-80
2021/07/01 06:12:07;;;;;;;12.13;6.90;;;;;;;14.82;100.00;100148.47;5197514;28;20058;-80
2021/07/01 06:14:39;;;;;;;11.02;6.38;;;;;;;14.96;100.00;100144.06;5192765;28;20054;-80
2021/07/01 06:17:11;;;;;;;9.60;7.03;;;;;;;14.85;100.00;100146.50;5193039;28;20033;-80
2021/07/01 06:19:41;;;;;;;11.88;7.03;;;;;;;14.82;100.00;100141.44;5194391;28;20456;-80
2021/07/01 06:22:12;;;;;;;9.25;6.40;;;;;;;15.00;100.00;100141.16;5195770;28;20065;-80
2021/07/01 06:24:42;;;;;;;10.75;5.75;;;;;;;14.97;100.00;100143.97;5193719;28;20032;-80
2021/07/01 06:27:13;;;;;;;11.25;6.03;;;;;;;14.83;100.00;100143.94;5196313;28;20017;-80
2021/07/01 06:29:44;;;;;;;10.48;6.20;;;;;;;14.95;100.00;100153.75;5195503;28;20411;-80
2021/07/01 06:32:14;;;;;;;8.68;5.75;;;;;;;15.06;100.00;100148.69;5198294;28;20028;-80
2021/07/01 06:34:45;;;;;;;8.00;5.32;;;;;;;15.10;100.00;100146.69;5194085;28;20136;-80
2021/07/01 06:37:17;;;;;;;8.10;4.70;;;;;;;15.11;100.00;100148.38;5195926;28;20044;-80
2021/07/01 06:39:50;;;;;;;8.30;4.60;;;;;;;15.01;100.00;100148.09;5191398;28;20034;-80
2021/07/01 06:42:22;;;;;;;8.93;5.13;;;;;;;15.00;100.00;100151.69;5197775;28;20029;-80
2021/07/01 06:44:53;;;;;;;7.57;4.50;;;;;;;15.13;100.00;100151.78;5187215;28;20033;-80
2021/07/01 06:47:28;;;;;;;7.32;4.30;;;;;;;15.15;100.00;100150.75;5191899;28;20049;-79
2021/07/01 06:49:59;;;;;;;6.70;4.13;;;;;;;15.29;100.00;100144.66;5192473;28;20029;-80
2021/07/01 06:52:30;;;;;;;7.28;4.55;;;;;;;15.25;100.00;100146.63;5197485;28;20918;-80
2021/07/01 06:55:01;;;;;;;7.25;3.95;;;;;;;15.45;100.00;100150.69;5195213;28;20030;-79
2021/07/01 06:57:33;;;;;;;5.88;3.72;;;;;;;15.61;100.00;100149.66;5196440;28;20047;-79
2021/07/01 07:00:06;;;;;;;6.47;3.78;;;;;;;15.70;100.00;100149.06;5194338;28;20121;-78
2021/07/01 07:02:38;;;;;;;5.90;3.40;;;;;;;15.74;100.00;100160.25;5196078;28;20029;-80
2021/07/01 07:05:10;;;;;;;5.05;2.95;;;;;;;15.86;100.00;100155.03;5198014;28;20228;-77
2021/07/01 07:07:42;;;;;;;5.65;2.90;;;;;;;15.87;100.00;100148.00;5202680;28;20033;-77
2021/07/01 07:10:16;;;;;;;4.13;2.90;;;;;;;15.92;100.00;100148.53;5194738;28;20025;-78
2021/07/01 07:12:49;;;;;;;5.53;3.00;;;;;;;15.67;100.00;100159.78;5199101;28;20036;-79
2021/07/01 07:15:27;;;;;;;4.38;2.80;;;;;;;15.83;100.00;100149.13;5190624;28;20033;-78
2021/07/01 07:18:14;;;;;;;5.03;2.47;;;;;;;15.48;100.00;100159.25;5193755;28;20029;-77
2021/07/01 07:20:46;;;;;;;3.35;2.28;;;;;;;15.57;100.00;100169.19;5197742;28;20026;-79
2021/07/01 07:23:18;;;;;;;5.00;3.50;;;;;;;15.52;100.00;100162.56;5208298;28;20057;-80
2021/07/01 07:25:49;;;;;;;4.15;2.30;;;;;;;15.64;100.00;100164.41;5199413;28;20043;-80
2021/07/01 07:28:22;;;;;;;3.80;2.20;;;;;;;15.54;100.00;100158.84;5202673;28;20033;-79
2021/07/01 07:30:55;;;;;;;3.53;2.10;;;;;;;15.63;100.00;100168.84;5194764;28;20040;-79
2021/07/01 07:33:27;;;;;;;4.03;2.00;;;;;;;15.81;100.00;100167.69;5201981;28;20036;-80
2021/07/01 07:35:58;;;;;;;3.53;2.10;;;;;;;15.60;100.00;100174.31;5197092;28;20070;-77
2021/07/01 07:38:28;;;;;;;3.38;1.90;;;;;;;15.83;100.00;100171.06;5200275;28;20034;-80
2021/07/01 07:40:59;;;;;;;2.63;1.70;;;;;;;15.75;100.00;100169.84;5203570;28;20041;-81
2021/07/01 07:43:29;;;;;;;2.28;1.45;;;;;;;15.88;100.00;100181.31;5197312;28;20022;-80
2021/07/01 07:45:59;;;;;;;2.90;1.50;;;;;;;15.73;100.00;100169.94;5200183;28;20030;-79
2021/07/01 07:48:30;;;;;;;3.17;1.58;;;;;;;15.83;100.00;100173.69;5195054;28;20044;-79
2021/07/01 07:51:02;;;;;;;2.58;1.50;;;;;;;15.84;100.00;100185.09;5198144;28;20447;-79
2021/07/01 07:53:34;;;;;;;3.22;1.55;;;;;;;15.77;100.00;100181.13;5202567;28;20059;-78
2021/07/01 07:56:07;;;;;;;1.80;1.40;;;;;;;15.65;100.00;100166.94;5201220;28;20096;-79
2021/07/01 07:58:43;;;;;;;3.65;1.40;;;;;;;15.80;100.00;100163.34;5200513;28;20026;-80
2021/07/01 08:01:14;;;;;;;1.80;1.33;;;;;;;15.81;100.00;100172.94;5231705;23;20390;-77
2021/07/01 08:03:50;;;;;;;2.20;1.45;;;;;;;15.67;100.00;100170.34;5216411;28;20104;-77
2021/07/01 08:06:23;;;;;;;1.65;1.17;;;;;;;15.73;100.00;100174.38;5211303;28;20034;-78
2021/07/01 08:08:56;;;;;;;2.13;1.38;;;;;;;15.68;100.00;100168.56;5214907;28;20025;-79
2021/07/01 08:11:26;;;;;;;1.83;1.40;;;;;;;15.72;100.00;100170.88;5201229;28;20494;-77
2021/07/01 08:13:59;;;;;;;3.67;1.30;;;;;;;15.81;100.00;100172.94;5196714;28;20025;-78
2021/07/01 08:16:30;;;;;;;1.92;1.25;;;;;;;15.91;100.00;100176.69;5193722;28;20125;-79
2021/07/01 08:19:03;;;;;;;2.38;1.10;;;;;;;15.51;100.00;100169.59;5198399;28;20088;-79
2021/07/01 08:21:33;;;;;;;1.42;0.98;;;;;;;15.92;100.00;100181.03;5198228;28;20029;-79
2021/07/01 08:24:04;;;;;;;4.25;1.00;;;;;;;15.54;100.00;100174.66;5196979;28;20107;-79
2021/07/01 08:26:35;;;;;;;1.60;1.13;;;;;;;15.70;100.00;100185.09;5195946;28;20025;-77
2021/07/01 08:29:05;;;;;;;1.85;1.00;;;;;;;15.64;100.00;100178.44;5195122;28;20525;-79
2021/07/01 08:31:36;;;;;;;2.70;0.98;;;;;;;15.71;100.00;100177.09;5195726;28;20026;-78
2021/07/01 08:34:06;;;;;;;1.98;1.02;;;;;;;15.63;100.00;100184.63;5196860;28;20029;-78
2021/07/01 08:36:43;;;;;;;1.75;1.00;;;;;;;15.60;100.00;100183.97;5196671;28;20085;-77
2021/07/01 08:39:13;;;;;;;1.25;0.90;;;;;;;15.65;100.00;100181.91;5195888;28;20458;-78
2021/07/01 08:41:44;;;;;;;1.55;1.10;;;;;;;15.72;100.00;100189.31;5197211;28;20033;-78
2021/07/01 08:44:22;;;;;;;1.23;0.85;;;;;;;15.66;100.00;100189.72;5197429;28;20030;-77
2021/07/01 08:47:10;;;;;;;3.97;0.93;;;;;;;15.70;100.00;100198.28;5191245;28;20028;-77
2021/07/01 08:49:57;;;;;;;1.73;1.00;;;;;;;15.87;100.00;100191.00;5190194;28;20044;-78
2021/07/01 08:52:32;;;;;;;3.83;1.00;;;;;;;15.62;100.00;100190.00;5196862;28;20026;-77
2021/07/01 08:55:05;;;;;;;3.17;0.90;;;;;;;15.54;100.00;100189.63;5201316;28;20487;-77
2021/07/01 08:57:37;;;;;;;3.20;1.40;;;;;;;15.59;100.00;100193.69;5198721;28;20296;-78
2021/07/01 09:00:13;;;;;;;1.88;1.00;;;;;;;15.62;100.00;100188.22;5198584;28;20057;-77
2021/07/01 09:02:46;;;;;;;;;;;;;;;15.82;100.00;100185.19;5201355;28;20116;-78
2021/07/01 09:05:18;;;;;;;3.45;1.20;;;;;;;15.62;100.00;100193.50;5199779;28;19949;-77
2021/07/01 09:07:50;;;;;;;2.42;1.20;;;;;;;15.73;100.00;100201.56;5197298;28;20029;-75
2021/07/01 09:10:22;;;;;;;3.53;1.38;;;;;;;15.53;100.00;100194.03;5197751;28;20107;-77
2021/07/01 09:12:55;;;;;;;3.60;1.30;;;;;;;15.64;100.00;100190.75;5200091;28;20475;-77
2021/07/01 09:15:27;;;;;;;2.75;1.42;;;;;;;15.74;100.00;100197.97;5196982;28;20120;-77
2021/07/01 09:17:58;;;;;;;2.00;1.42;;;;;;;15.99;100.00;100192.88;5200218;28;20029;-78
2021/07/01 09:20:36;;;;;;;3.08;1.35;;;;;;;15.99;100.00;100197.28;5206229;28;20025;-77
2021/07/01 09:23:09;;;;;;;3.50;1.50;;;;;;;15.96;100.00;100206.25;5202756;28;20040;-76
2021/07/01 09:25:41;;;;;;;4.15;1.05;;;;;;;16.00;100.00;100198.97;5201423;28;20025;-78
2021/07/01 09:28:12;;;;;;;2.55;1.60;;;;;;;16.18;100.00;100196.00;5204188;28;20037;-76
2021/07/01 09:30:43;;;;;;;2.28;1.33;;;;;;;16.34;100.00;100196.72;5201119;28;20024;-76
2021/07/01 09:33:13;;;;;;;2.00;1.42;;;;;;;16.24;100.00;100195.59;5201884;28;20029;-77
2021/07/01 09:35:44;;;;;;;3.35;1.60;;;;;;;16.54;100.00;100190.19;5200523;28;20034;-76
2021/07/01 09:38:16;;;;;;;2.03;1.30;;;;;;;16.56;100.00;100191.75;5202241;28;20048;-75
2021/07/01 09:40:47;;;;;;;2.00;1.33;;;;;;;16.53;100.00;100189.31;5200897;28;20361;-78
2021/07/01 09:43:22;;;;;;;2.85;1.30;;;;;;;16.71;100.00;100192.56;5199803;28;20030;-78
2021/07/01 09:45:54;;;;;;;2.80;1.20;;;;;;;16.94;100.00;100190.06;5200930;28;20032;-79
2021/07/01 09:48:25;;;;;;;2.95;1.20;;;;;;;16.91;100.00;100195.53;5203857;28;20022;-77
2021/07/01 09:51:01;;;;;;;1.88;1.05;;;;;;;16.81;100.00;100186.56;5201509;28;20049;-77
2021/07/01 09:53:33;;;;;;;1.85;1.30;;;;;;;16.70;100.00;100191.69;5206070;28;20109;-76
2021/07/01 09:56:06;;;;;;;3.40;1.50;;;;;;;17.04;100.00;100183.19;5206104;28;20026;-77
2021/07/01 09:58:46;;;;;;;2.28;1.20;;;;;;;16.91;100.00;100184.97;5206792;28;20036;-76
2021/07/01 10:01:24;;;;;;;2.20;1.10;;;;;;;17.08;100.00;100182.88;5205974;28;20044;-77
2021/07/01 10:03:57;;;;;;;1.50;1.10;;;;;;;17.30;100.00;100191.03;5201831;28;20017;-78
2021/07/01 10:06:28;;;;;;;2.78;1.40;;;;;;;17.10;100.00;100188.03;5203589;28;20054;-77
2021/07/01 10:08:59;;;;;;;2.40;1.38;;;;;;;17.18;100.00;100194.50;5206964;28;20041;-77
2021/07/01 10:11:43;;;;;;;2.50;1.20;;;;;;;17.10;100.00;100195.97;5204892;28;20033;-77
2021/07/01 10:14:17;;;;;;;1.90;1.27;;;;;;;17.23;100.00;100192.41;5203358;28;20022;-77
2021/07/01 10:16:47;;;;;;;1.98;1.25;;;;;;;17.18;100.00;100194.50;5205694;28;20064;-77
2021/07/01 10:19:21;;;;;;;3.72;1.45;;;;;;;17.07;100.00;100188.25;5202004;28;20030;-79
2021/07/01 10:22:03;;;;;;;2.10;1.20;;;;;;;16.99;100.00;100203.78;5201806;28;20083;-76
2021/07/01 10:24:58;;;;;;;2.63;1.40;;;;;;;17.11;100.00;100195.06;5206015;28;20029;-77
2021/07/01 10:27:39;;;;;;;2.80;1.50;;;;;;;17.02;100.00;100193.88;5202270;28;20037;-77
2021/07/01 10:30:22;;;;;;;2.53;1.42;;;;;;;17.03;100.00;100200.00;5205712;28;20025;-78
2021/07/01 10:32:57;;;;;;;1.90;1.35;;;;;;;17.20;100.00;100197.03;5201523;28;20030;-77
2021/07/01 10:35:31;;;;;;;2.80;1.38;;;;;;;17.06;100.00;100199.78;5209429;28;20025;-76
2021/07/01 10:38:13;;;;;;;1.92;1.10;;;;;;;17.07;100.00;100196.19;5207189;28;20022;-78
2021/07/01 10:40:48;;;;;;;1.65;1.10;;;;;;;17.08;100.00;100203.16;5205415;28;20124;-78
2021/07/01 10:43:21;;;;;;;1.80;1.10;;;;;;;17.23;100.00;100202.09;5205117;28;20033;-78
2021/07/01 10:45:52;;;;;;;1.80;1.00;;;;;;;17.20;100.00;100202.31;5201485;28;20042;-78
2021/07/01 10:48:24;;;;;;;2.22;1.33;;;;;;;17.10;100.00;100201.25;5205654;28;20084;-77
2021/07/01 10:51:04;;;;;;;3.13;1.27;;;;;;;17.23;100.00;100208.25;5202951;28;20052;-78
2021/07/01 10:53:42;;;;;;;2.30;1.40;;;;;;;17.25;100.00;100201.06;5205473;28;20040;-78
2021/07/01 10:56:16;;;;;;;2.22;1.10;;;;;;;17.37;100.00;100205.56;5207369;28;20021;-78
2021/07/01 10:58:54;;;;;;;3.08;1.27;;;;;;;17.41;100.00;100199.09;5204574;28;20036;-78
2021/07/01 11:01:26;;;;;;;3.03;1.20;;;;;;;17.68;100.00;100204.25;5202025;28;20049;-79
2021/07/01 11:04:10;;;;;;;2.25;1.23;;;;;;;17.45;100.00;100194.44;5205598;28;20022;-79
2021/07/01 11:06:55;;;;;;;1.67;1.00;;;;;;;17.04;100.00;100202.53;5205414;28;20128;-77
2021/07/01 11:09:41;;;;;;;2.05;0.95;;;;;;;16.88;100.00;100203.66;5199915;28;20034;-77
2021/07/01 11:12:12;;;;;;;2.63;0.77;;;;;;;17.27;100.00;100196.53;5205991;28;20149;-78
2021/07/01 11:14:46;;;;;;;2.45;1.10;;;;;;;17.26;100.00;100196.63;5198279;28;20089;-78
2021/07/01 11:17:27;;;;;;;1.27;1.00;;;;;;;17.14;100.00;100198.31;5201600;28;20033;-77
2021/07/01 11:20:11;;;;;;;1.13;0.85;;;;;;;17.28;100.00;100210.59;5189560;28;20089;-77
2021/07/01 11:22:50;;;;;;;2.47;0.77;;;;;;;17.47;100.00;100200.47;5192783;28;20333;-77
2021/07/01 11:25:37;;;;;;;1.17;0.80;;;;;;;17.42;100.00;100199.91;5194024;28;20091;-75
2021/07/01 11:28:30;;;;;;;2.00;0.80;;;;;;;17.47;100.00;100200.47;5198556;28;20052;-78
2021/07/01 11:31:02;;;;;;;1.63;0.90;;;;;;;17.58;100.00;100205.84;5196901;28;20021;-78
2021/07/01 11:33:33;;;;;;;2.22;0.90;;;;;;;17.77;100.00;100211.50;5201133;28;20022;-77
2021/07/01 11:36:14;;;;;;;1.77;0.93;;;;;;;17.84;100.00;100218.06;5200101;28;20671;-78
2021/07/01 11:38:46;;;;;;;2.58;0.85;;;;;;;17.71;100.00;100210.19;5199609;28;20085;-77